createdAt,value
2022-12-12T00:06:32.341Z,171.60
2022-12-12T00:16:36.197Z,182.33
2022-12-12T00:26:41.350Z,177.13
2022-12-12T00:36:45.337Z,175.23
2022-12-12T00:46:50.519Z,171.10
2022-12-12T00:56:54.411Z,175.37
2022-12-12T01:06:59.663Z,170.93
2022-12-12T01:17:03.525Z,174.40
2022-12-12T01:27:08.883Z,175.03
2022-12-12T01:37:12.565Z,175.50
2022-12-12T01:47:20.679Z,171.63
2022-12-12T01:57:30.488Z,171.63
2022-12-12T02:07:35.690Z,170.17
2022-12-12T02:18:03.680Z,170.40
2022-12-12T02:28:41.819Z,173.07
2022-12-12T02:38:55.042Z,170.97
2022-12-12T02:49:04.400Z,169.27
2022-12-12T02:59:10.166Z,164.33
2022-12-12T03:09:24.665Z,167.40
2022-12-12T03:19:36.490Z,167.13
2022-12-12T03:29:45.409Z,163.00
2022-12-12T03:39:57.073Z,169.97
2022-12-12T03:50:08.825Z,169.07
2022-12-12T04:00:16.589Z,160.83
2022-12-12T04:10:40.313Z,161.53
2022-12-12T04:21:14.579Z,165.30
2022-12-12T04:31:22.734Z,165.03
2022-12-12T04:41:30.104Z,163.70
2022-12-12T04:51:38.576Z,161.00
2022-12-12T05:01:55.241Z,162.53
2022-12-12T05:11:59.926Z,170.00
2022-12-12T05:22:05.197Z,171.03
2022-12-12T05:32:09.214Z,169.97
2022-12-12T05:42:14.284Z,167.60
2022-12-12T05:52:18.117Z,173.40
2022-12-12T06:02:23.463Z,168.43
2022-12-12T06:12:27.623Z,165.83
2022-12-12T06:22:33.079Z,169.50
2022-12-12T06:32:36.850Z,166.57
2022-12-12T06:42:47.914Z,171.97
2022-12-12T06:52:52.116Z,170.37
2022-12-12T07:02:57.296Z,172.67
2022-12-12T07:13:01.238Z,179.37
2022-12-12T07:23:06.391Z,179.60
2022-12-12T07:33:11.546Z,174.40
2022-12-12T07:43:16.801Z,181.67
2022-12-12T07:53:20.665Z,188.33
2022-12-12T08:03:25.883Z,186.37
2022-12-12T08:13:29.642Z,178.83
2022-12-12T08:23:34.906Z,178.40
2022-12-12T08:33:39.136Z,181.10
2022-12-12T08:43:45.302Z,186.13
2022-12-12T08:53:51.222Z,181.93
2022-12-12T09:03:58.064Z,177.97
2022-12-12T09:14:01.783Z,182.70
2022-12-12T09:24:07.950Z,178.63
2022-12-12T09:34:11.779Z,184.03
2022-12-12T09:44:22.658Z,182.40
2022-12-12T09:54:28.421Z,184.07
2022-12-12T10:04:42.489Z,187.53
2022-12-12T10:14:53.106Z,194.27
2022-12-12T10:25:07.930Z,185.43
2022-12-12T10:35:26.634Z,188.30
2022-12-12T10:46:09.988Z,188.23
2022-12-12T10:56:21.920Z,178.33
2022-12-12T11:06:33.262Z,182.83
2022-12-12T11:16:45.443Z,182.93
2022-12-12T11:26:57.446Z,182.00
2022-12-12T11:37:01.610Z,185.67
2022-12-12T11:47:28.865Z,189.30
2022-12-12T11:58:03.420Z,185.83
2022-12-12T12:08:24.328Z,182.07
2022-12-12T12:18:46.215Z,184.17
2022-12-12T12:29:38.510Z,179.43
2022-12-12T12:40:03.258Z,175.73
2022-12-12T12:50:19.114Z,181.00
2022-12-12T13:00:28.762Z,179.13
2022-12-12T13:10:35.459Z,170.77
2022-12-12T13:20:44.384Z,185.77
2022-12-12T13:31:12.702Z,179.67
2022-12-12T13:41:18.532Z,177.10
2022-12-12T13:51:41.485Z,182.63
2022-12-12T14:01:45.547Z,178.30
2022-12-12T14:11:51.999Z,180.83
2022-12-12T14:21:56.021Z,176.30
2022-12-12T14:32:31.616Z,184.77
2022-12-12T14:43:19.136Z,183.27
2022-12-12T14:53:33.550Z,185.50
2022-12-12T15:03:42.572Z,176.27
2022-12-12T15:13:56.743Z,183.47
2022-12-12T15:24:02.355Z,178.90
2022-12-12T15:45:03.750Z,213.93
2022-12-12T15:55:08.188Z,217.67
2022-12-12T16:05:30.377Z,211.40
2022-12-12T16:15:37.563Z,206.03
2022-12-12T16:25:42.833Z,221.87
2022-12-12T16:35:47.061Z,218.83
2022-12-12T16:45:54.258Z,224.33
2022-12-12T16:55:58.694Z,210.50
2022-12-12T17:06:04.150Z,194.17
2022-12-12T17:16:08.923Z,221.17
2022-12-12T17:26:14.506Z,210.67
2022-12-12T17:36:18.874Z,210.10
2022-12-12T17:46:27.891Z,176.77
2022-12-12T17:56:32.258Z,191.83
2022-12-12T18:06:38.103Z,203.97
2022-12-12T18:16:42.890Z,184.97
2022-12-12T18:26:52.785Z,199.60
2022-12-12T18:36:57.399Z,184.37
2022-12-12T18:47:02.728Z,177.97
2022-12-12T18:57:06.465Z,189.97
2022-12-12T19:07:11.944Z,187.57
2022-12-12T19:17:17.457Z,204.33
2022-12-12T19:27:23.576Z,197.20
2022-12-12T19:37:27.376Z,196.03
2022-12-12T19:47:33.385Z,201.43
2022-12-12T19:57:37.095Z,209.67
2022-12-12T20:07:43.648Z,195.40
2022-12-12T20:17:47.665Z,192.23
2022-12-12T20:27:53.048Z,192.97
2022-12-12T20:37:56.794Z,196.63
2022-12-12T20:48:07.445Z,197.07
2022-12-12T20:58:11.490Z,187.40
2022-12-12T21:08:17.800Z,184.17
2022-12-12T21:18:21.514Z,191.93
2022-12-12T21:28:26.695Z,184.40
2022-12-12T21:38:30.391Z,180.97
2022-12-12T21:48:36.233Z,183.07
2022-12-12T21:58:42.447Z,174.37
2022-12-12T22:09:30.013Z,179.63
2022-12-12T22:19:33.641Z,172.33
2022-12-12T22:29:38.946Z,180.13
2022-12-12T22:39:42.567Z,176.97
2022-12-12T22:49:47.566Z,167.50
2022-12-12T22:59:51.895Z,165.90
2022-12-12T23:09:59.107Z,172.90
2022-12-12T23:20:03.327Z,168.47
2022-12-12T23:30:10.802Z,160.07
2022-12-12T23:40:14.584Z,167.83
2022-12-12T23:50:19.751Z,165.00
